sensor_id;sensor_type;location;lat;lon;timestamp;P1;durP1;ratioP1;P2;durP2;ratioP2
5499;SDS011;2772;42.700;23.304;2022-09-01T00:00:49;23.20;;;18.80;;
5499;SDS011;2772;42.700;23.304;2022-09-01T00:03:16;19.73;;;17.37;;
5499;SDS011;2772;42.700;23.304;2022-09-01T00:05:44;21.93;;;16.60;;
5499;SDS011;2772;42.700;23.304;2022-09-01T00:08:15;20.50;;;15.83;;
5499;SDS011;2772;42.700;23.304;2022-09-01T00:10:42;20.07;;;16.80;;
5499;SDS011;2772;42.700;23.304;2022-09-01T00:13:09;22.73;;;16.57;;
5499;SDS011;2772;42.700;23.304;2022-09-01T00:15:37;26.60;;;20.60;;
5499;SDS011;2772;42.700;23.304;2022-09-01T00:18:05;27.97;;;18.90;;
5499;SDS011;2772;42.700;23.304;2022-09-01T00:20:31;21.50;;;17.70;;
5499;SDS011;2772;42.700;23.304;2022-09-01T00:22:59;22.40;;;17.80;;
5499;SDS011;2772;42.700;23.304;2022-09-01T00:25:26;23.73;;;18.57;;
5499;SDS011;2772;42.700;23.304;2022-09-01T00:27:54;22.30;;;17.50;;
5499;SDS011;2772;42.700;23.304;2022-09-01T00:30:24;23.37;;;17.80;;
5499;SDS011;2772;42.700;23.304;2022-09-01T00:32:53;22.93;;;16.97;;
5499;SDS011;2772;42.700;23.304;2022-09-01T00:35:19;21.97;;;16.97;;
5499;SDS011;2772;42.700;23.304;2022-09-01T00:37:46;26.30;;;18.73;;
5499;SDS011;2772;42.700;23.304;2022-09-01T00:40:14;21.73;;;17.40;;
5499;SDS011;2772;42.700;23.304;2022-09-01T00:42:42;26.10;;;17.70;;
5499;SDS011;2772;42.700;23.304;2022-09-01T00:45:10;21.67;;;16.77;;
5499;SDS011;2772;42.700;23.304;2022-09-01T00:47:37;22.50;;;16.90;;
5499;SDS011;2772;42.700;23.304;2022-09-01T00:50:06;22.13;;;16.60;;
5499;SDS011;2772;42.700;23.304;2022-09-01T00:52:37;24.50;;;16.80;;
5499;SDS011;2772;42.700;23.304;2022-09-01T00:55:07;21.47;;;16.50;;
5499;SDS011;2772;42.700;23.304;2022-09-01T00:57:36;23.70;;;17.10;;
5499;SDS011;2772;42.700;23.304;2022-09-01T01:00:07;22.50;;;16.67;;
5499;SDS011;2772;42.700;23.304;2022-09-01T01:02:36;22.23;;;16.43;;
5499;SDS011;2772;42.700;23.304;2022-09-01T01:05:06;30.70;;;16.40;;
5499;SDS011;2772;42.700;23.304;2022-09-01T01:07:33;20.67;;;16.90;;
5499;SDS011;2772;42.700;23.304;2022-09-01T01:10:03;21.43;;;16.70;;
5499;SDS011;2772;42.700;23.304;2022-09-01T01:12:31;25.17;;;16.90;;
5499;SDS011;2772;42.700;23.304;2022-09-01T01:15:00;22.30;;;17.50;;
5499;SDS011;2772;42.700;23.304;2022-09-01T01:17:28;26.23;;;17.10;;
5499;SDS011;2772;42.700;23.304;2022-09-01T01:19:55;23.47;;;17.80;;
5499;SDS011;2772;42.700;23.304;2022-09-01T01:22:43;28.40;;;18.90;;
5499;SDS011;2772;42.700;23.304;2022-09-01T01:25:31;29.47;;;19.93;;
5499;SDS011;2772;42.700;23.304;2022-09-01T01:28:05;35.50;;;19.53;;
5499;SDS011;2772;42.700;23.304;2022-09-01T01:30:36;26.07;;;19.10;;
5499;SDS011;2772;42.700;23.304;2022-09-01T01:33:06;29.93;;;20.60;;
5499;SDS011;2772;42.700;23.304;2022-09-01T01:35:33;29.40;;;20.07;;
5499;SDS011;2772;42.700;23.304;2022-09-01T01:38:02;29.37;;;20.93;;
5499;SDS011;2772;42.700;23.304;2022-09-01T01:40:33;29.17;;;20.47;;
5499;SDS011;2772;42.700;23.304;2022-09-01T01:43:01;30.77;;;20.50;;
5499;SDS011;2772;42.700;23.304;2022-09-01T01:45:29;29.10;;;20.90;;
5499;SDS011;2772;42.700;23.304;2022-09-01T01:47:56;32.67;;;22.97;;
5499;SDS011;2772;42.700;23.304;2022-09-01T01:50:31;28.80;;;20.57;;
5499;SDS011;2772;42.700;23.304;2022-09-01T01:52:59;31.30;;;22.40;;
5499;SDS011;2772;42.700;23.304;2022-09-01T01:55:28;36.90;;;21.83;;
5499;SDS011;2772;42.700;23.304;2022-09-01T01:57:57;30.03;;;21.50;;
5499;SDS011;2772;42.700;23.304;2022-09-01T02:00:25;35.00;;;22.80;;
5499;SDS011;2772;42.700;23.304;2022-09-01T02:02:54;33.33;;;21.70;;
5499;SDS011;2772;42.700;23.304;2022-09-01T02:05:21;31.00;;;21.53;;
5499;SDS011;2772;42.700;23.304;2022-09-01T02:07:51;27.40;;;21.57;;
5499;SDS011;2772;42.700;23.304;2022-09-01T02:10:24;30.67;;;21.03;;
5499;SDS011;2772;42.700;23.304;2022-09-01T02:12:53;31.57;;;22.80;;
5499;SDS011;2772;42.700;23.304;2022-09-01T02:15:30;35.53;;;23.97;;
5499;SDS011;2772;42.700;23.304;2022-09-01T02:18:03;31.03;;;21.63;;
5499;SDS011;2772;42.700;23.304;2022-09-01T02:20:30;29.50;;;21.97;;
5499;SDS011;2772;42.700;23.304;2022-09-01T02:22:57;32.97;;;23.85;;
5499;SDS011;2772;42.700;23.304;2022-09-01T02:25:24;31.30;;;22.60;;
5499;SDS011;2772;42.700;23.304;2022-09-01T02:27:52;30.37;;;22.30;;
5499;SDS011;2772;42.700;23.304;2022-09-01T02:30:19;28.47;;;20.67;;
5499;SDS011;2772;42.700;23.304;2022-09-01T02:32:50;29.73;;;21.60;;
5499;SDS011;2772;42.700;23.304;2022-09-01T02:35:17;30.73;;;21.50;;
5499;SDS011;2772;42.700;23.304;2022-09-01T02:37:44;28.43;;;21.10;;
5499;SDS011;2772;42.700;23.304;2022-09-01T02:40:14;32.63;;;21.50;;
5499;SDS011;2772;42.700;23.304;2022-09-01T02:42:43;31.23;;;21.80;;
5499;SDS011;2772;42.700;23.304;2022-09-01T02:45:13;44.40;;;23.10;;
5499;SDS011;2772;42.700;23.304;2022-09-01T02:47:41;33.33;;;21.47;;
5499;SDS011;2772;42.700;23.304;2022-09-01T02:50:14;28.80;;;20.00;;
5499;SDS011;2772;42.700;23.304;2022-09-01T02:52:43;36.30;;;21.57;;
5499;SDS011;2772;42.700;23.304;2022-09-01T02:55:16;34.33;;;22.40;;
5499;SDS011;2772;42.700;23.304;2022-09-01T02:57:48;28.53;;;20.67;;
5499;SDS011;2772;42.700;23.304;2022-09-01T03:00:19;29.30;;;21.77;;
5499;SDS011;2772;42.700;23.304;2022-09-01T03:02:50;30.57;;;21.20;;
5499;SDS011;2772;42.700;23.304;2022-09-01T03:05:19;32.67;;;21.97;;
5499;SDS011;2772;42.700;23.304;2022-09-01T03:07:53;32.63;;;22.33;;
5499;SDS011;2772;42.700;23.304;2022-09-01T03:10:23;34.10;;;22.47;;
5499;SDS011;2772;42.700;23.304;2022-09-01T03:12:57;36.27;;;23.30;;
5499;SDS011;2772;42.700;23.304;2022-09-01T03:15:25;32.63;;;22.20;;
5499;SDS011;2772;42.700;23.304;2022-09-01T03:17:53;32.77;;;21.40;;
5499;SDS011;2772;42.700;23.304;2022-09-01T03:20:26;36.27;;;21.63;;
5499;SDS011;2772;42.700;23.304;2022-09-01T03:22:55;33.33;;;22.00;;
5499;SDS011;2772;42.700;23.304;2022-09-01T03:25:22;29.97;;;21.47;;
5499;SDS011;2772;42.700;23.304;2022-09-01T03:27:50;29.40;;;21.10;;
5499;SDS011;2772;42.700;23.304;2022-09-01T03:30:17;32.20;;;21.20;;
5499;SDS011;2772;42.700;23.304;2022-09-01T03:32:44;38.70;;;21.53;;
5499;SDS011;2772;42.700;23.304;2022-09-01T03:35:12;41.90;;;22.47;;
5499;SDS011;2772;42.700;23.304;2022-09-01T03:37:41;33.80;;;22.20;;
5499;SDS011;2772;42.700;23.304;2022-09-01T03:40:09;39.07;;;22.87;;
5499;SDS011;2772;42.700;23.304;2022-09-01T03:42:37;30.37;;;21.27;;
5499;SDS011;2772;42.700;23.304;2022-09-01T03:45:05;33.10;;;22.63;;
5499;SDS011;2772;42.700;23.304;2022-09-01T03:47:37;36.67;;;22.60;;
5499;SDS011;2772;42.700;23.304;2022-09-01T03:50:05;38.90;;;22.87;;
5499;SDS011;2772;42.700;23.304;2022-09-01T03:52:36;35.70;;;22.33;;
5499;SDS011;2772;42.700;23.304;2022-09-01T03:55:09;38.93;;;23.07;;
5499;SDS011;2772;42.700;23.304;2022-09-01T03:57:36;32.27;;;23.03;;
5499;SDS011;2772;42.700;23.304;2022-09-01T04:00:06;31.77;;;22.03;;
5499;SDS011;2772;42.700;23.304;2022-09-01T04:02:44;42.93;;;24.30;;
5499;SDS011;2772;42.700;23.304;2022-09-01T04:05:14;50.80;;;23.27;;
5499;SDS011;2772;42.700;23.304;2022-09-01T04:07:41;43.33;;;25.07;;
5499;SDS011;2772;42.700;23.304;2022-09-01T04:10:11;40.07;;;25.40;;
5499;SDS011;2772;42.700;23.304;2022-09-01T04:12:38;45.60;;;26.40;;
5499;SDS011;2772;42.700;23.304;2022-09-01T04:15:05;39.63;;;25.40;;
5499;SDS011;2772;42.700;23.304;2022-09-01T04:17:33;42.60;;;27.53;;
5499;SDS011;2772;42.700;23.304;2022-09-01T04:20:17;49.10;;;27.87;;
5499;SDS011;2772;42.700;23.304;2022-09-01T04:22:46;51.90;;;30.87;;
5499;SDS011;2772;42.700;23.304;2022-09-01T04:25:16;57.63;;;31.40;;
5499;SDS011;2772;42.700;23.304;2022-09-01T04:27:47;45.53;;;28.00;;
5499;SDS011;2772;42.700;23.304;2022-09-01T04:30:14;43.57;;;27.07;;
5499;SDS011;2772;42.700;23.304;2022-09-01T04:32:41;66.80;;;28.33;;
5499;SDS011;2772;42.700;23.304;2022-09-01T04:35:11;56.43;;;29.03;;
5499;SDS011;2772;42.700;23.304;2022-09-01T04:37:41;44.67;;;27.40;;
5499;SDS011;2772;42.700;23.304;2022-09-01T04:40:10;41.03;;;26.30;;
5499;SDS011;2772;42.700;23.304;2022-09-01T04:42:40;43.50;;;26.17;;
5499;SDS011;2772;42.700;23.304;2022-09-01T04:45:09;41.33;;;26.23;;
5499;SDS011;2772;42.700;23.304;2022-09-01T04:47:37;41.73;;;25.87;;
5499;SDS011;2772;42.700;23.304;2022-09-01T04:50:06;38.57;;;24.50;;
5499;SDS011;2772;42.700;23.304;2022-09-01T04:52:38;44.10;;;25.67;;
5499;SDS011;2772;42.700;23.304;2022-09-01T04:55:06;42.43;;;26.57;;
5499;SDS011;2772;42.700;23.304;2022-09-01T04:57:43;43.33;;;29.03;;
5499;SDS011;2772;42.700;23.304;2022-09-01T05:00:13;45.37;;;27.17;;
5499;SDS011;2772;42.700;23.304;2022-09-01T05:02:47;46.10;;;28.70;;
5499;SDS011;2772;42.700;23.304;2022-09-01T05:05:19;43.67;;;27.00;;
5499;SDS011;2772;42.700;23.304;2022-09-01T05:07:46;42.83;;;26.53;;
5499;SDS011;2772;42.700;23.304;2022-09-01T05:10:17;39.93;;;26.67;;
5499;SDS011;2772;42.700;23.304;2022-09-01T05:12:46;44.00;;;25.03;;
5499;SDS011;2772;42.700;23.304;2022-09-01T05:15:16;53.40;;;28.63;;
5499;SDS011;2772;42.700;23.304;2022-09-01T05:17:45;36.43;;;25.53;;
5499;SDS011;2772;42.700;23.304;2022-09-01T05:20:12;36.03;;;25.67;;
5499;SDS011;2772;42.700;23.304;2022-09-01T05:22:39;39.30;;;25.87;;
5499;SDS011;2772;42.700;23.304;2022-09-01T05:25:06;37.80;;;25.10;;
5499;SDS011;2772;42.700;23.304;2022-09-01T05:27:37;45.07;;;23.60;;
5499;SDS011;2772;42.700;23.304;2022-09-01T05:30:07;44.37;;;24.73;;
5499;SDS011;2772;42.700;23.304;2022-09-01T05:32:34;39.97;;;24.63;;
5499;SDS011;2772;42.700;23.304;2022-09-01T05:35:04;44.33;;;27.73;;
5499;SDS011;2772;42.700;23.304;2022-09-01T05:37:32;37.83;;;23.97;;
5499;SDS011;2772;42.700;23.304;2022-09-01T05:40:02;33.80;;;23.80;;
5499;SDS011;2772;42.700;23.304;2022-09-01T05:42:30;38.83;;;25.23;;
5499;SDS011;2772;42.700;23.304;2022-09-01T05:45:01;37.73;;;24.77;;
5499;SDS011;2772;42.700;23.304;2022-09-01T05:47:29;41.77;;;25.03;;
5499;SDS011;2772;42.700;23.304;2022-09-01T05:50:01;35.80;;;25.07;;
5499;SDS011;2772;42.700;23.304;2022-09-01T05:52:30;37.90;;;22.40;;
5499;SDS011;2772;42.700;23.304;2022-09-01T05:54:59;40.90;;;24.50;;
5499;SDS011;2772;42.700;23.304;2022-09-01T05:57:26;44.83;;;27.57;;
5499;SDS011;2772;42.700;23.304;2022-09-01T05:59:53;35.80;;;25.00;;
5499;SDS011;2772;42.700;23.304;2022-09-01T06:02:20;34.20;;;24.00;;
5499;SDS011;2772;42.700;23.304;2022-09-01T06:04:49;42.13;;;25.63;;
5499;SDS011;2772;42.700;23.304;2022-09-01T06:07:16;41.27;;;26.40;;
5499;SDS011;2772;42.700;23.304;2022-09-01T06:09:44;37.40;;;25.90;;
5499;SDS011;2772;42.700;23.304;2022-09-01T06:12:12;38.07;;;25.97;;
5499;SDS011;2772;42.700;23.304;2022-09-01T06:14:44;36.77;;;26.43;;
5499;SDS011;2772;42.700;23.304;2022-09-01T06:17:12;38.43;;;25.40;;
5499;SDS011;2772;42.700;23.304;2022-09-01T06:19:40;46.83;;;26.83;;
5499;SDS011;2772;42.700;23.304;2022-09-01T06:22:09;41.20;;;25.60;;
5499;SDS011;2772;42.700;23.304;2022-09-01T06:24:36;42.63;;;26.50;;
5499;SDS011;2772;42.700;23.304;2022-09-01T06:27:05;51.77;;;28.17;;
5499;SDS011;2772;42.700;23.304;2022-09-01T06:29:34;52.03;;;29.37;;
5499;SDS011;2772;42.700;23.304;2022-09-01T06:32:04;42.63;;;27.60;;
5499;SDS011;2772;42.700;23.304;2022-09-01T06:34:33;49.67;;;30.10;;
5499;SDS011;2772;42.700;23.304;2022-09-01T06:37:01;74.03;;;38.13;;
5499;SDS011;2772;42.700;23.304;2022-09-01T06:39:31;51.27;;;28.27;;
5499;SDS011;2772;42.700;23.304;2022-09-01T06:41:58;51.03;;;30.40;;
5499;SDS011;2772;42.700;23.304;2022-09-01T06:44:26;61.03;;;31.87;;
5499;SDS011;2772;42.700;23.304;2022-09-01T06:46:56;52.23;;;31.00;;
5499;SDS011;2772;42.700;23.304;2022-09-01T06:49:24;55.37;;;30.23;;
5499;SDS011;2772;42.700;23.304;2022-09-01T06:51:56;55.07;;;33.87;;
5499;SDS011;2772;42.700;23.304;2022-09-01T06:54:23;55.83;;;34.63;;
5499;SDS011;2772;42.700;23.304;2022-09-01T06:56:52;63.93;;;36.07;;
5499;SDS011;2772;42.700;23.304;2022-09-01T06:59:19;58.17;;;33.70;;
5499;SDS011;2772;42.700;23.304;2022-09-01T07:01:47;54.30;;;32.40;;
5499;SDS011;2772;42.700;23.304;2022-09-01T07:04:16;53.53;;;32.67;;
5499;SDS011;2772;42.700;23.304;2022-09-01T07:06:44;60.40;;;30.00;;
5499;SDS011;2772;42.700;23.304;2022-09-01T07:09:16;55.50;;;31.40;;
5499;SDS011;2772;42.700;23.304;2022-09-01T07:11:43;51.00;;;30.63;;
5499;SDS011;2772;42.700;23.304;2022-09-01T07:14:12;50.57;;;32.20;;
5499;SDS011;2772;42.700;23.304;2022-09-01T07:16:41;48.33;;;30.47;;
5499;SDS011;2772;42.700;23.304;2022-09-01T07:19:11;49.47;;;31.77;;
5499;SDS011;2772;42.700;23.304;2022-09-01T07:21:39;52.40;;;31.70;;
5499;SDS011;2772;42.700;23.304;2022-09-01T07:24:06;49.23;;;31.40;;
5499;SDS011;2772;42.700;23.304;2022-09-01T07:26:33;54.00;;;30.77;;
5499;SDS011;2772;42.700;23.304;2022-09-01T07:29:01;64.23;;;39.30;;
5499;SDS011;2772;42.700;23.304;2022-09-01T07:31:32;55.17;;;31.03;;
5499;SDS011;2772;42.700;23.304;2022-09-01T07:34:05;59.13;;;32.40;;
5499;SDS011;2772;42.700;23.304;2022-09-01T07:36:37;56.87;;;33.57;;
5499;SDS011;2772;42.700;23.304;2022-09-01T07:39:05;53.03;;;33.00;;
5499;SDS011;2772;42.700;23.304;2022-09-01T07:41:32;47.37;;;31.33;;
5499;SDS011;2772;42.700;23.304;2022-09-01T07:44:00;49.60;;;32.73;;
5499;SDS011;2772;42.700;23.304;2022-09-01T07:46:30;55.63;;;33.43;;
5499;SDS011;2772;42.700;23.304;2022-09-01T07:48:58;61.73;;;37.57;;
5499;SDS011;2772;42.700;23.304;2022-09-01T07:51:27;49.77;;;33.57;;
5499;SDS011;2772;42.700;23.304;2022-09-01T07:53:57;58.30;;;33.83;;
5499;SDS011;2772;42.700;23.304;2022-09-01T07:56:26;57.80;;;35.23;;
5499;SDS011;2772;42.700;23.304;2022-09-01T07:58:54;54.90;;;33.53;;
5499;SDS011;2772;42.700;23.304;2022-09-01T08:01:23;59.93;;;35.17;;
5499;SDS011;2772;42.700;23.304;2022-09-01T08:03:53;58.60;;;33.57;;
5499;SDS011;2772;42.700;23.304;2022-09-01T08:06:22;53.77;;;33.30;;
5499;SDS011;2772;42.700;23.304;2022-09-01T08:08:51;49.43;;;32.10;;
5499;SDS011;2772;42.700;23.304;2022-09-01T08:11:22;45.13;;;30.50;;
5499;SDS011;2772;42.700;23.304;2022-09-01T08:13:51;50.90;;;33.83;;
5499;SDS011;2772;42.700;23.304;2022-09-01T08:16:19;51.07;;;31.93;;
5499;SDS011;2772;42.700;23.304;2022-09-01T08:18:46;57.20;;;34.10;;
5499;SDS011;2772;42.700;23.304;2022-09-01T08:21:16;46.03;;;33.27;;
5499;SDS011;2772;42.700;23.304;2022-09-01T08:23:46;52.33;;;33.50;;
5499;SDS011;2772;42.700;23.304;2022-09-01T08:26:13;56.97;;;34.10;;
5499;SDS011;2772;42.700;23.304;2022-09-01T08:28:41;47.67;;;33.77;;
5499;SDS011;2772;42.700;23.304;2022-09-01T08:31:09;47.70;;;33.10;;
5499;SDS011;2772;42.700;23.304;2022-09-01T08:33:37;40.37;;;30.23;;
5499;SDS011;2772;42.700;23.304;2022-09-01T08:36:06;45.07;;;32.07;;
5499;SDS011;2772;42.700;23.304;2022-09-01T08:38:35;45.33;;;32.00;;
5499;SDS011;2772;42.700;23.304;2022-09-01T08:41:02;43.30;;;29.00;;
5499;SDS011;2772;42.700;23.304;2022-09-01T08:43:42;43.75;;;31.63;;
5499;SDS011;2772;42.700;23.304;2022-09-01T08:46:19;39.37;;;29.97;;
5499;SDS011;2772;42.700;23.304;2022-09-01T08:48:50;52.10;;;29.87;;
5499;SDS011;2772;42.700;23.304;2022-09-01T08:51:29;34.57;;;24.90;;
5499;SDS011;2772;42.700;23.304;2022-09-01T08:54:02;34.67;;;25.97;;
5499;SDS011;2772;42.700;23.304;2022-09-01T08:56:35;36.60;;;26.10;;
5499;SDS011;2772;42.700;23.304;2022-09-01T08:59:04;35.63;;;26.23;;
5499;SDS011;2772;42.700;23.304;2022-09-01T09:01:35;36.00;;;24.23;;
5499;SDS011;2772;42.700;23.304;2022-09-01T09:04:16;37.80;;;22.50;;
5499;SDS011;2772;42.700;23.304;2022-09-01T09:06:58;31.87;;;23.07;;
5499;SDS011;2772;42.700;23.304;2022-09-01T09:09:35;28.07;;;22.40;;
5499;SDS011;2772;42.700;23.304;2022-09-01T09:12:10;27.83;;;20.47;;
5499;SDS011;2772;42.700;23.304;2022-09-01T09:14:51;29.23;;;22.13;;
5499;SDS011;2772;42.700;23.304;2022-09-01T09:17:29;29.03;;;23.30;;
5499;SDS011;2772;42.700;23.304;2022-09-01T09:20:04;28.87;;;21.90;;
5499;SDS011;2772;42.700;23.304;2022-09-01T09:22:31;27.37;;;19.33;;
5499;SDS011;2772;42.700;23.304;2022-09-01T09:25:02;30.33;;;18.70;;
5499;SDS011;2772;42.700;23.304;2022-09-01T09:27:34;34.47;;;19.43;;
5499;SDS011;2772;42.700;23.304;2022-09-01T09:30:04;27.73;;;17.57;;
5499;SDS011;2772;42.700;23.304;2022-09-01T09:32:44;23.03;;;17.17;;
5499;SDS011;2772;42.700;23.304;2022-09-01T09:35:18;26.30;;;18.37;;
5499;SDS011;2772;42.700;23.304;2022-09-01T09:37:48;30.03;;;20.13;;
5499;SDS011;2772;42.700;23.304;2022-09-01T09:40:18;23.53;;;17.93;;
5499;SDS011;2772;42.700;23.304;2022-09-01T09:43:03;39.10;;;18.33;;
5499;SDS011;2772;42.700;23.304;2022-09-01T09:45:33;34.43;;;21.17;;
5499;SDS011;2772;42.700;23.304;2022-09-01T09:48:05;28.63;;;19.13;;
5499;SDS011;2772;42.700;23.304;2022-09-01T09:50:35;23.83;;;18.47;;
5499;SDS011;2772;42.700;23.304;2022-09-01T09:53:14;35.87;;;17.70;;
5499;SDS011;2772;42.700;23.304;2022-09-01T09:55:56;25.10;;;16.37;;
5499;SDS011;2772;42.700;23.304;2022-09-01T09:58:25;25.17;;;18.38;;
5499;SDS011;2772;42.700;23.304;2022-09-01T10:01:00;28.20;;;17.50;;
5499;SDS011;2772;42.700;23.304;2022-09-01T10:03:34;27.10;;;19.20;;
5499;SDS011;2772;42.700;23.304;2022-09-01T10:06:11;30.07;;;23.10;;
5499;SDS011;2772;42.700;23.304;2022-09-01T10:08:42;23.97;;;15.93;;
5499;SDS011;2772;42.700;23.304;2022-09-01T10:11:24;23.17;;;15.60;;
5499;SDS011;2772;42.700;23.304;2022-09-01T10:13:54;25.70;;;16.67;;
5499;SDS011;2772;42.700;23.304;2022-09-01T10:16:23;21.60;;;14.40;;
5499;SDS011;2772;42.700;23.304;2022-09-01T10:18:54;21.33;;;14.87;;
5499;SDS011;2772;42.700;23.304;2022-09-01T10:21:26;17.47;;;15.00;;
5499;SDS011;2772;42.700;23.304;2022-09-01T10:23:56;18.23;;;14.97;;
5499;SDS011;2772;42.700;23.304;2022-09-01T10:26:26;20.27;;;14.97;;
5499;SDS011;2772;42.700;23.304;2022-09-01T10:28:58;19.43;;;15.53;;
5499;SDS011;2772;42.700;23.304;2022-09-01T10:31:31;19.80;;;16.73;;
5499;SDS011;2772;42.700;23.304;2022-09-01T10:34:00;18.77;;;14.87;;
5499;SDS011;2772;42.700;23.304;2022-09-01T10:36:29;20.83;;;14.43;;
5499;SDS011;2772;42.700;23.304;2022-09-01T10:38:57;30.33;;;19.20;;
5499;SDS011;2772;42.700;23.304;2022-09-01T10:44:17;23.83;;;15.37;;
5499;SDS011;2772;42.700;23.304;2022-09-01T10:46:47;21.50;;;15.83;;
5499;SDS011;2772;42.700;23.304;2022-09-01T10:55:22;18.83;;;14.23;;
5499;SDS011;2772;42.700;23.304;2022-09-01T11:01:00;19.90;;;13.30;;
5499;SDS011;2772;42.700;23.304;2022-09-01T11:06:32;13.50;;;12.03;;
5499;SDS011;2772;42.700;23.304;2022-09-01T11:09:28;18.23;;;12.80;;
5499;SDS011;2772;42.700;23.304;2022-09-01T11:12:19;14.13;;;12.40;;
5499;SDS011;2772;42.700;23.304;2022-09-01T11:18:08;19.30;;;13.40;;
5499;SDS011;2772;42.700;23.304;2022-09-01T11:20:38;16.60;;;13.47;;
5499;SDS011;2772;42.700;23.304;2022-09-01T11:23:09;20.63;;;13.60;;
5499;SDS011;2772;42.700;23.304;2022-09-01T11:25:39;18.00;;;14.33;;
5499;SDS011;2772;42.700;23.304;2022-09-01T11:34:09;19.00;;;14.80;;
5499;SDS011;2772;42.700;23.304;2022-09-01T11:36:44;21.50;;;14.17;;
5499;SDS011;2772;42.700;23.304;2022-09-01T11:39:22;19.97;;;15.20;;
5499;SDS011;2772;42.700;23.304;2022-09-01T11:41:57;18.63;;;13.57;;
5499;SDS011;2772;42.700;23.304;2022-09-01T11:44:29;18.40;;;13.60;;
5499;SDS011;2772;42.700;23.304;2022-09-01T11:47:03;18.47;;;14.13;;
5499;SDS011;2772;42.700;23.304;2022-09-01T11:49:33;18.70;;;14.37;;
5499;SDS011;2772;42.700;23.304;2022-09-01T11:52:03;21.80;;;16.23;;
5499;SDS011;2772;42.700;23.304;2022-09-01T11:54:36;15.47;;;13.83;;
5499;SDS011;2772;42.700;23.304;2022-09-01T11:57:22;20.50;;;12.53;;
5499;SDS011;2772;42.700;23.304;2022-09-01T11:59:57;16.50;;;12.67;;
5499;SDS011;2772;42.700;23.304;2022-09-01T12:02:28;19.13;;;14.13;;
5499;SDS011;2772;42.700;23.304;2022-09-01T12:04:59;14.90;;;13.40;;
5499;SDS011;2772;42.700;23.304;2022-09-01T12:10:18;17.97;;;14.00;;
5499;SDS011;2772;42.700;23.304;2022-09-01T12:12:51;17.03;;;14.13;;
5499;SDS011;2772;42.700;23.304;2022-09-01T12:15:27;16.27;;;13.80;;
5499;SDS011;2772;42.700;23.304;2022-09-01T12:18:09;18.60;;;14.03;;
5499;SDS011;2772;42.700;23.304;2022-09-01T12:20:39;18.47;;;13.60;;
5499;SDS011;2772;42.700;23.304;2022-09-01T12:23:14;23.27;;;16.47;;
5499;SDS011;2772;42.700;23.304;2022-09-01T12:25:44;23.30;;;14.20;;
5499;SDS011;2772;42.700;23.304;2022-09-01T12:28:12;18.67;;;14.47;;
5499;SDS011;2772;42.700;23.304;2022-09-01T12:30:40;19.70;;;15.50;;
5499;SDS011;2772;42.700;23.304;2022-09-01T12:33:11;15.23;;;13.60;;
5499;SDS011;2772;42.700;23.304;2022-09-01T12:35:39;25.00;;;15.40;;
5499;SDS011;2772;42.700;23.304;2022-09-01T12:38:15;19.50;;;14.20;;
5499;SDS011;2772;42.700;23.304;2022-09-01T12:40:54;15.87;;;14.27;;
5499;SDS011;2772;42.700;23.304;2022-09-01T12:43:26;18.13;;;13.73;;
5499;SDS011;2772;42.700;23.304;2022-09-01T12:45:57;24.43;;;14.50;;
5499;SDS011;2772;42.700;23.304;2022-09-01T12:48:27;20.80;;;15.43;;
5499;SDS011;2772;42.700;23.304;2022-09-01T12:50:57;21.47;;;14.80;;
5499;SDS011;2772;42.700;23.304;2022-09-01T12:53:26;16.77;;;13.80;;
5499;SDS011;2772;42.700;23.304;2022-09-01T12:59:02;19.33;;;14.50;;
5499;SDS011;2772;42.700;23.304;2022-09-01T13:01:33;19.33;;;15.20;;
5499;SDS011;2772;42.700;23.304;2022-09-01T13:04:12;15.67;;;13.97;;
5499;SDS011;2772;42.700;23.304;2022-09-01T13:06:49;23.53;;;14.53;;
5499;SDS011;2772;42.700;23.304;2022-09-01T13:09:17;20.03;;;14.67;;
5499;SDS011;2772;42.700;23.304;2022-09-01T13:11:44;17.50;;;15.60;;
5499;SDS011;2772;42.700;23.304;2022-09-01T13:14:13;20.90;;;15.80;;
5499;SDS011;2772;42.700;23.304;2022-09-01T13:16:41;20.13;;;15.70;;
5499;SDS011;2772;42.700;23.304;2022-09-01T13:19:08;25.70;;;15.63;;
5499;SDS011;2772;42.700;23.304;2022-09-01T13:21:36;20.77;;;14.17;;
5499;SDS011;2772;42.700;23.304;2022-09-01T13:24:04;22.73;;;14.30;;
5499;SDS011;2772;42.700;23.304;2022-09-01T13:26:31;18.20;;;14.93;;
5499;SDS011;2772;42.700;23.304;2022-09-01T13:28:58;22.70;;;15.53;;
5499;SDS011;2772;42.700;23.304;2022-09-01T13:31:26;17.10;;;14.70;;
5499;SDS011;2772;42.700;23.304;2022-09-01T13:33:54;19.30;;;14.57;;
5499;SDS011;2772;42.700;23.304;2022-09-01T13:36:21;18.20;;;14.37;;
5499;SDS011;2772;42.700;23.304;2022-09-01T13:38:49;16.13;;;13.93;;
5499;SDS011;2772;42.700;23.304;2022-09-01T13:41:16;25.80;;;15.90;;
5499;SDS011;2772;42.700;23.304;2022-09-01T13:43:43;19.17;;;14.10;;
5499;SDS011;2772;42.700;23.304;2022-09-01T13:46:11;17.17;;;15.33;;
5499;SDS011;2772;42.700;23.304;2022-09-01T13:48:39;18.07;;;14.20;;
5499;SDS011;2772;42.700;23.304;2022-09-01T13:51:06;17.33;;;13.07;;
5499;SDS011;2772;42.700;23.304;2022-09-01T13:53:33;17.83;;;13.90;;
5499;SDS011;2772;42.700;23.304;2022-09-01T13:56:02;25.93;;;15.33;;
5499;SDS011;2772;42.700;23.304;2022-09-01T13:58:29;19.73;;;13.87;;
5499;SDS011;2772;42.700;23.304;2022-09-01T14:00:56;17.73;;;13.20;;
5499;SDS011;2772;42.700;23.304;2022-09-01T14:03:24;15.70;;;13.87;;
5499;SDS011;2772;42.700;23.304;2022-09-01T14:05:51;20.70;;;15.60;;
5499;SDS011;2772;42.700;23.304;2022-09-01T14:08:19;23.40;;;14.47;;
5499;SDS011;2772;42.700;23.304;2022-09-01T14:10:48;29.00;;;15.80;;
5499;SDS011;2772;42.700;23.304;2022-09-01T14:13:19;26.43;;;15.47;;
5499;SDS011;2772;42.700;23.304;2022-09-01T14:15:46;28.17;;;14.90;;
5499;SDS011;2772;42.700;23.304;2022-09-01T14:18:14;22.30;;;13.70;;
5499;SDS011;2772;42.700;23.304;2022-09-01T14:20:42;17.40;;;15.40;;
5499;SDS011;2772;42.700;23.304;2022-09-01T14:23:10;16.80;;;12.73;;
5499;SDS011;2772;42.700;23.304;2022-09-01T14:25:40;21.03;;;13.83;;
5499;SDS011;2772;42.700;23.304;2022-09-01T14:28:08;17.43;;;13.90;;
5499;SDS011;2772;42.700;23.304;2022-09-01T14:30:38;15.80;;;13.17;;
5499;SDS011;2772;42.700;23.304;2022-09-01T14:33:07;17.40;;;14.03;;
5499;SDS011;2772;42.700;23.304;2022-09-01T14:35:35;19.80;;;13.60;;
5499;SDS011;2772;42.700;23.304;2022-09-01T14:38:03;20.37;;;14.93;;
5499;SDS011;2772;42.700;23.304;2022-09-01T14:40:31;18.57;;;13.20;;
5499;SDS011;2772;42.700;23.304;2022-09-01T14:43:01;31.30;;;16.70;;
5499;SDS011;2772;42.700;23.304;2022-09-01T14:45:29;17.90;;;15.30;;
5499;SDS011;2772;42.700;23.304;2022-09-01T14:47:58;17.87;;;15.53;;
5499;SDS011;2772;42.700;23.304;2022-09-01T14:50:26;20.23;;;15.17;;
5499;SDS011;2772;42.700;23.304;2022-09-01T14:52:57;21.93;;;16.57;;
5499;SDS011;2772;42.700;23.304;2022-09-01T14:55:26;25.50;;;16.43;;
5499;SDS011;2772;42.700;23.304;2022-09-01T14:57:54;17.27;;;15.47;;
5499;SDS011;2772;42.700;23.304;2022-09-01T15:00:22;18.77;;;15.30;;
5499;SDS011;2772;42.700;23.304;2022-09-01T15:02:50;18.30;;;15.27;;
5499;SDS011;2772;42.700;23.304;2022-09-01T15:05:19;16.70;;;14.90;;
5499;SDS011;2772;42.700;23.304;2022-09-01T15:07:46;17.75;;;14.50;;
5499;SDS011;2772;42.700;23.304;2022-09-01T15:10:14;23.73;;;15.50;;
5499;SDS011;2772;42.700;23.304;2022-09-01T15:12:43;18.83;;;15.50;;
5499;SDS011;2772;42.700;23.304;2022-09-01T15:15:09;17.37;;;15.43;;
5499;SDS011;2772;42.700;23.304;2022-09-01T15:17:36;18.53;;;15.03;;
5499;SDS011;2772;42.700;23.304;2022-09-01T15:20:04;16.80;;;15.00;;